Detroit, MI

6:11 AM EDT on July 07, 2015 (GMT -0400)
University | | Change Station
CLOSE
Current Station
Personal Weather Station
Location: Windsor, ONTARIO
Elevation: 607 ft
Nearby Weather Stations

Elev 607 ft 42.31 °N, 83.06 °W | Updated 10 minutes ago

Mostly Cloudy
Mostly Cloudy
71.8 °F
Feels Like 70 °F
N
0.0
Wind Variable Wind from NW

Today
High -- | Low -- °F
--% Chance of Precip.
Yesterday
High -- | Low -- °F
Precip. -- in
6:02 AM 9:11 PM
Waning Gibbous, 66% visible
Pressure 29.86 in
Visibility 6.0 miles
Clouds Few 4400 ft
Few 5500 ft
Scattered Clouds 7500 ft
Heat Index 70 °F
Dew Point 68 °F
Humidity 87%
Rainfall 0.00 in
Snow Depth Not available.
UV 0 out of 12
Pollen 3.10 out of 12
Air Quality Not available.
Flu Activity Not available.
METAR KDET 070953Z 21008KT 6SM HZ FEW044 FEW055 SCT075 23/19 A2987 RMK AO2 SLP110 T02280194

More Conditions Fewer Conditions

Pressure 29.86 in
Visibility 6.0 miles
Clouds Few 4400 ft
Few 5500 ft
Scattered Clouds 7500 ft
Heat Index 70 °F
Dew Point 68 °F
Humidity 87%
Rainfall 0.00 in
Snow Depth Not available.
UV 0 out of 12
Pollen 3.10 out of 12
Air Quality Not available.
Flu Activity Not available.
METAR KDET 070953Z 21008KT 6SM HZ FEW044 FEW055 SCT075 23/19 A2987 RMK AO2 SLP110 T02280194

More Conditions Fewer Conditions

10-Day Weather Forecast

×

Almanac

Astronomy

Jul. 07, 2015 Rise Set
Actual Time
Civil Twilight
Nautical Twilight
Astronomical Twilight
Moon
Length of Visible Light
Length of Day
Tomorrow will be .
, % of the Moon is Illuminated

Today's Extremes

State Highs State Lows

Community

WunderPhotos

Upload Photos

1,835,760 photos uploaded!

WunderBlogs® & News

Nearby

Air Quality

  Air Quality AQ Index Pollutant
Not available.

Snow Depth

Station Depth Elevation

Earthquake Activity

City Distance Mag. Time & Date
Minimum magnitude displayed is 2.5.

Coastal Water Temperatures

Place Temperature

Stations

Nearby Weather Stations

Station Location Temp. Windchill Dew Point Humidity Wind Precip. Elev Updated Type